Time;durP1;ratioP1;P1;durP2;ratioP2;P2;SDS_P1;SDS_P2;PMS_P1;PMS_P2;Temp;Humidity;BMP_temperature;BMP_pressure;BME280_temperature;BME280_humidity;BME280_pressure;Samples;Min_cycle;Max_cycle;Signal;HPM_P1;HPM_P2
2022/08/14 00:00:46;;;;;;;6.78;3.70;;;22.20;92.00;;;;;;5089912;28;20079;-75
2022/08/14 00:03:24;;;;;;;11.23;4.40;;;22.20;92.30;;;;;;5089416;28;20044;-75
2022/08/14 00:05:51;;;;;;;8.77;4.00;;;22.10;92.40;;;;;;5089488;28;20048;-75
2022/08/14 00:08:16;;;;;;;6.07;3.88;;;22.10;92.20;;;;;;5070937;28;20043;-76
2022/08/14 00:10:43;;;;;;;7.97;3.97;;;22.00;92.30;;;;;;5089560;28;20059;-77
2022/08/14 00:13:09;;;;;;;8.77;4.38;;;22.10;92.50;;;;;;5071280;28;20529;-76
2022/08/14 00:15:39;;;;;;;8.68;4.22;;;22.00;92.60;;;;;;5089617;28;20518;-76
2022/08/14 00:18:07;;;;;;;8.40;4.25;;;22.00;92.80;;;;;;5070416;28;20055;-75
2022/08/14 00:20:35;;;;;;;8.35;3.97;;;21.90;92.70;;;;;;5071527;28;20047;-76
2022/08/14 00:23:02;;;;;;;9.38;4.05;;;21.90;93.10;;;;;;5071325;28;20051;-75
2022/08/14 00:25:28;;;;;;;11.05;4.32;;;21.90;92.90;;;;;;5071286;28;20048;-75
2022/08/14 00:27:54;;;;;;;10.48;4.25;;;21.80;92.90;;;;;;5089328;28;20051;-76
2022/08/14 00:30:20;;;;;;;8.05;3.88;;;21.80;93.30;;;;;;5071542;28;20051;-76
2022/08/14 00:32:46;;;;;;;9.50;4.15;;;21.80;93.30;;;;;;5089304;28;20131;-76
2022/08/14 00:35:13;;;;;;;9.55;4.47;;;21.70;93.60;;;;;;5071187;28;20127;-75
2022/08/14 00:37:41;;;;;;;13.05;4.72;;;21.70;93.70;;;;;;5089311;28;20040;-74
2022/08/14 00:40:08;;;;;;;5.90;4.50;;;21.70;93.80;;;;;;5089779;28;20043;-76
2022/08/14 00:42:34;;;;;;;5.45;4.35;;;21.60;94.00;;;;;;5089519;28;20096;-76
2022/08/14 00:45:00;;;;;;;21.05;4.57;;;21.60;93.80;;;;;;5089423;28;20036;-76
2022/08/14 00:47:25;;;;;;;6.57;4.72;;;21.60;94.00;;;;;;5089468;28;20491;-76
2022/08/14 00:49:54;;;;;;;7.63;4.47;;;21.50;94.20;;;;;;5088599;28;20380;-74
2022/08/14 00:52:21;;;;;;;13.73;4.70;;;21.50;94.40;;;;;;5071198;28;20060;-75
2022/08/14 00:54:51;;;;;;;9.27;4.55;;;21.40;94.50;;;;;;5089219;28;20048;-74
2022/08/14 00:57:18;;;;;;;8.77;4.65;;;21.40;94.60;;;;;;5062465;28;20044;-75
2022/08/14 00:59:44;;;;;;;7.53;4.78;;;21.40;94.90;;;;;;5071332;28;20170;-75
2022/08/14 01:02:13;;;;;;;8.27;4.65;;;21.40;94.90;;;;;;5089427;28;20123;-74
2022/08/14 01:04:42;;;;;;;9.45;4.65;;;21.40;94.80;;;;;;5088887;28;20047;-76
2022/08/14 01:07:08;;;;;;;5.72;4.60;;;21.30;94.90;;;;;;5088880;28;20099;-75
2022/08/14 01:09:36;;;;;;;6.63;5.35;;;21.30;95.20;;;;;;5070964;28;20086;-75
2022/08/14 01:12:03;;;;;;;10.43;5.40;;;21.20;95.70;;;;;;5071100;28;20062;-75
2022/08/14 01:14:29;;;;;;;8.27;4.90;;;21.10;95.80;;;;;;5089011;28;20619;-75
2022/08/14 01:16:55;;;;;;;7.55;5.05;;;21.20;95.60;;;;;;5070973;28;20119;-76
2022/08/14 01:22:06;;;;;;;12.40;5.13;;;21.20;95.90;;;;;;5092960;28;20044;-76
2022/08/14 01:24:32;;;;;;;10.25;5.30;;;21.10;96.00;;;;;;5057683;28;20048;-75
2022/08/14 01:26:58;;;;;;;12.70;5.60;;;21.10;96.10;;;;;;5056702;28;20117;-75
2022/08/14 01:29:25;;;;;;;8.18;5.45;;;21.00;96.40;;;;;;5074221;28;20126;-75
2022/08/14 01:31:51;;;;;;;7.63;5.03;;;21.00;96.30;;;;;;5092556;28;20040;-76
2022/08/14 01:34:24;;;;;;;10.52;5.68;;;21.00;96.40;;;;;;5092348;28;20418;-74
2022/08/14 01:36:51;;;;;;;10.27;5.40;;;21.00;96.60;;;;;;5091913;28;20399;-75
2022/08/14 01:39:17;;;;;;;7.03;5.22;;;20.90;96.90;;;;;;5091880;28;20517;-74
2022/08/14 01:41:48;;;;;;;9.77;5.82;;;20.90;97.10;;;;;;5074111;28;20043;-74
2022/08/14 01:44:15;;;;;;;8.75;5.22;;;20.80;97.10;;;;;;5091870;28;20044;-74
2022/08/14 01:46:43;;;;;;;8.65;5.40;;;20.80;97.40;;;;;;5092100;28;20454;-75
2022/08/14 01:49:14;;;;;;;11.05;5.50;;;20.80;97.40;;;;;;5091582;28;20055;-75
2022/08/14 01:51:43;;;;;;;9.23;5.95;;;20.80;97.70;;;;;;5091851;28;20462;-75
2022/08/14 01:54:12;;;;;;;8.98;5.93;;;20.70;98.00;;;;;;5092070;28;20056;-74
2022/08/14 01:56:39;;;;;;;9.32;6.38;;;20.60;98.50;;;;;;5092073;28;20067;-75
2022/08/14 01:59:18;;;;;;;7.18;6.10;;;20.70;98.30;;;;;;5091711;28;20048;-75
2022/08/14 02:01:45;;;;;;;12.65;6.00;;;20.60;98.60;;;;;;5090381;28;20125;-75
2022/08/14 02:04:11;;;;;;;9.88;6.43;;;20.60;98.90;;;;;;5073602;28;20059;-75
2022/08/14 02:06:37;;;;;;;6.85;5.88;;;20.60;99.10;;;;;;5073282;28;20411;-74
2022/08/14 02:09:04;;;;;;;9.10;5.60;;;20.60;99.40;;;;;;5055782;28;20055;-76
2022/08/14 02:11:30;;;;;;;13.68;5.72;;;20.50;99.40;;;;;;5091181;28;20048;-75
2022/08/14 02:14:07;;;;;;;10.05;6.18;;;20.50;99.80;;;;;;5072111;28;20059;-74
2022/08/14 02:16:37;;;;;;;8.43;6.60;;;20.60;99.90;;;;;;5090342;28;20047;-77
2022/08/14 02:19:07;;;;;;;14.20;6.32;;;20.60;99.90;;;;;;5072915;28;20479;-76
2022/08/14 02:21:35;;;;;;;8.60;6.30;;;20.50;99.90;;;;;;5091182;28;20047;-75
2022/08/14 02:24:03;;;;;;;10.00;6.55;;;20.50;99.90;;;;;;5090537;28;20051;-76
2022/08/14 02:26:34;;;;;;;12.52;6.70;;;20.50;99.90;;;;;;5091271;28;20479;-76
2022/08/14 02:29:07;;;;;;;8.20;6.28;;;20.50;99.90;;;;;;5091099;28;20541;-75
2022/08/14 02:31:36;;;;;;;11.27;7.03;;;20.50;99.90;;;;;;5090510;28;20483;-75
2022/08/14 02:34:09;;;;;;;11.10;6.80;;;20.40;99.90;;;;;;5077709;28;20102;-74
2022/08/14 02:36:39;;;;;;;11.77;6.57;;;20.50;99.90;;;;;;5072005;28;20109;-77
2022/08/14 02:39:07;;;;;;;16.20;7.18;;;20.50;99.90;;;;;;5090992;28;20048;-75
2022/08/14 02:41:34;;;;;;;8.18;6.43;;;20.50;99.90;;;;;;5090983;28;20047;-76
2022/08/14 02:44:01;;;;;;;13.93;7.18;;;20.40;99.90;;;;;;5072109;28;20135;-75
2022/08/14 02:46:29;;;;;;;13.73;8.05;;;20.40;99.90;;;;;;5091094;28;20052;-74
2022/08/14 02:48:55;;;;;;;12.20;6.50;;;20.40;99.90;;;;;;5091059;28;20043;-77
2022/08/14 02:51:22;;;;;;;9.02;6.93;;;20.40;99.90;;;;;;5090629;28;20395;-75
2022/08/14 02:53:48;;;;;;;7.43;6.10;;;20.40;99.90;;;;;;5090099;28;20044;-76
2022/08/14 02:56:16;;;;;;;12.02;6.68;;;20.40;99.90;;;;;;5090766;28;20054;-75
2022/08/14 02:58:45;;;;;;;10.85;6.90;;;20.40;99.90;;;;;;5091216;28;20040;-76
2022/08/14 03:01:12;;;;;;;8.38;6.65;;;20.40;99.90;;;;;;5091036;28;20137;-76
2022/08/14 03:03:38;;;;;;;10.13;7.15;;;20.40;99.90;;;;;;5090653;28;20123;-76
2022/08/14 03:06:06;;;;;;;8.90;6.75;;;20.40;99.90;;;;;;5072400;28;20127;-75
2022/08/14 03:08:32;;;;;;;12.70;7.53;;;20.30;99.90;;;;;;5071895;28;20055;-76
2022/08/14 03:11:05;;;;;;;10.52;6.50;;;20.30;99.90;;;;;;5090036;28;20063;-74
2022/08/14 03:13:34;;;;;;;15.75;7.43;;;20.30;99.90;;;;;;5090173;28;20051;-75
2022/08/14 03:16:05;;;;;;;10.93;7.05;;;20.30;99.90;;;;;;5052547;28;20215;-76
2022/08/14 03:18:30;;;;;;;8.18;6.88;;;20.20;99.90;;;;;;5071166;28;20764;-75
2022/08/14 03:20:57;;;;;;;10.90;7.60;;;20.30;99.90;;;;;;5090564;28;20097;-76
2022/08/14 03:23:23;;;;;;;10.18;7.68;;;20.20;99.90;;;;;;5071971;28;20094;-75
2022/08/14 03:25:49;;;;;;;11.45;7.43;;;20.30;99.90;;;;;;5070490;28;20091;-75
2022/08/14 03:28:15;;;;;;;12.80;7.63;;;20.20;99.90;;;;;;5071432;28;20075;-74
2022/08/14 03:30:41;;;;;;;11.52;8.15;;;20.30;99.90;;;;;;5071559;28;20040;-76
2022/08/14 03:33:09;;;;;;;12.80;8.32;;;20.20;99.90;;;;;;5089610;28;20398;-74
2022/08/14 03:35:35;;;;;;;9.77;7.68;;;20.00;99.90;;;;;;5089060;28;20043;-77
2022/08/14 03:38:10;;;;;;;8.82;7.22;;;20.20;99.90;;;;;;5088735;28;20415;-76
2022/08/14 03:40:38;;;;;;;13.10;6.82;;;20.10;99.90;;;;;;5069846;28;20043;-77
2022/08/14 03:43:06;;;;;;;9.85;7.43;;;20.20;99.90;;;;;;5088430;28;20040;-76
2022/08/14 03:45:34;;;;;;;13.75;7.93;;;20.10;99.90;;;;;;5089432;28;20464;-76
2022/08/14 03:48:13;;;;;;;9.65;8.00;;;20.10;99.90;;;;;;5088559;28;20043;-77
2022/08/14 03:50:38;;;;;;;12.48;8.23;;;20.10;99.90;;;;;;5088353;28;20040;-75
2022/08/14 03:53:04;;;;;;;9.82;8.10;;;20.00;99.90;;;;;;5088780;28;20066;-76
2022/08/14 03:55:30;;;;;;;9.48;7.55;;;20.00;99.90;;;;;;5088878;28;20094;-74
2022/08/14 03:57:56;;;;;;;9.80;7.60;;;20.00;99.90;;;;;;5088972;28;20394;-76
2022/08/14 04:00:22;;;;;;;10.13;6.97;;;20.00;99.90;;;;;;5070686;28;20055;-76
2022/08/14 04:02:48;;;;;;;12.60;6.93;;;20.00;99.90;;;;;;5089028;28;20044;-76
2022/08/14 04:05:14;;;;;;;14.95;7.22;;;20.00;99.90;;;;;;5088758;28;20096;-75
2022/08/14 04:07:40;;;;;;;8.93;6.93;;;20.00;99.90;;;;;;5070909;28;20042;-76
2022/08/14 04:10:07;;;;;;;10.93;7.25;;;20.00;99.90;;;;;;5088270;28;20075;-77
2022/08/14 04:12:32;;;;;;;12.57;7.38;;;19.90;99.90;;;;;;5088250;28;20656;-75
2022/08/14 04:14:59;;;;;;;10.93;7.70;;;19.90;99.90;;;;;;5089055;28;20181;-77
2022/08/14 04:17:27;;;;;;;9.30;7.35;;;19.90;99.90;;;;;;5088951;28;20138;-76
2022/08/14 04:19:52;;;;;;;9.32;7.32;;;19.90;99.90;;;;;;5089080;28;20083;-75
2022/08/14 04:22:19;;;;;;;13.63;7.43;;;19.90;99.90;;;;;;5088592;28;20044;-76
2022/08/14 04:24:45;;;;;;;12.85;7.30;;;19.90;99.90;;;;;;5088710;28;20047;-77
2022/08/14 04:27:12;;;;;;;12.63;8.07;;;19.90;99.90;;;;;;5070838;28;20051;-76
2022/08/14 04:29:40;;;;;;;12.50;7.70;;;19.90;99.90;;;;;;5088860;28;20506;-76
2022/08/14 04:32:10;;;;;;;9.88;7.53;;;19.80;99.90;;;;;;5070721;28;20073;-76
2022/08/14 04:34:40;;;;;;;10.57;8.10;;;19.80;99.90;;;;;;5088482;28;20482;-76
2022/08/14 04:45:23;;;;;;;10.50;7.70;;;19.80;99.90;;;;;;5070154;28;20048;-75
2022/08/14 04:50:41;;;;;;;11.15;8.02;;;19.80;99.90;;;;;;5070600;28;20131;-76
2022/08/14 04:53:09;;;;;;;10.80;7.40;;;19.80;99.90;;;;;;5071015;28;20847;-76
2022/08/14 04:55:35;;;;;;;10.75;8.10;;;19.80;99.90;;;;;;5073562;28;20480;-76
2022/08/14 04:58:04;;;;;;;11.30;8.32;;;19.80;99.90;;;;;;5057031;28;20052;-75
2022/08/14 05:00:30;;;;;;;11.55;8.60;;;19.80;99.90;;;;;;5092529;28;20105;-76
2022/08/14 05:02:56;;;;;;;11.55;7.57;;;19.90;99.90;;;;;;5092613;28;20046;-77
2022/08/14 05:05:23;;;;;;;10.75;7.88;;;19.90;99.90;;;;;;5092164;28;20044;-75
2022/08/14 05:07:50;;;;;;;18.75;8.40;;;19.90;99.90;;;;;;5091607;28;20040;-76
2022/08/14 05:10:22;;;;;;;11.98;8.25;;;19.90;99.90;;;;;;5073505;28;20087;-76
2022/08/14 05:12:50;;;;;;;11.65;7.53;;;19.90;99.90;;;;;;5057421;28;20062;-75
2022/08/14 05:15:18;;;;;;;9.98;8.18;;;19.80;99.90;;;;;;5092040;28;20048;-76
2022/08/14 05:17:43;;;;;;;11.68;8.07;;;20.00;99.90;;;;;;5092030;28;20032;-75
2022/08/14 05:20:09;;;;;;;15.05;8.77;;;20.00;99.90;;;;;;5092424;28;20046;-76
2022/08/14 05:22:36;;;;;;;9.95;8.07;;;20.00;99.90;;;;;;5074142;28;20495;-75
2022/08/14 05:25:03;;;;;;;12.48;8.48;;;20.10;99.90;;;;;;5092181;28;20792;-75
2022/08/14 05:27:29;;;;;;;11.45;8.02;;;20.10;99.90;;;;;;5092437;28;20044;-76
2022/08/14 05:29:55;;;;;;;15.43;8.43;;;20.20;99.90;;;;;;5091891;28;20754;-76
2022/08/14 05:32:22;;;;;;;10.85;7.55;;;20.20;99.90;;;;;;5091734;28;20119;-75
2022/08/14 05:34:48;;;;;;;10.18;8.07;;;20.40;99.90;;;;;;5091977;28;20498;-74
2022/08/14 05:37:14;;;;;;;12.15;7.45;;;20.30;99.90;;;;;;5091956;28;20036;-74
2022/08/14 05:39:40;;;;;;;10.00;8.52;;;20.30;99.90;;;;;;5092082;28;20044;-75
2022/08/14 05:42:06;;;;;;;10.73;8.10;;;20.40;99.90;;;;;;5091276;28;20411;-76
2022/08/14 05:44:32;;;;;;;11.73;9.00;;;20.40;99.90;;;;;;5091943;28;20083;-75
2022/08/14 05:46:58;;;;;;;11.20;7.88;;;20.40;99.90;;;;;;5091559;28;20075;-75
2022/08/14 05:49:24;;;;;;;14.05;8.32;;;20.50;99.90;;;;;;5091905;28;20047;-75
2022/08/14 05:51:49;;;;;;;10.55;8.48;;;20.50;99.90;;;;;;5091444;28;20134;-75
2022/08/14 05:54:15;;;;;;;13.60;8.32;;;20.60;99.90;;;;;;5091975;28;20119;-76
2022/08/14 05:56:40;;;;;;;11.15;8.30;;;20.70;99.90;;;;;;5057284;28;20040;-77
2022/08/14 05:59:06;;;;;;;14.85;8.35;;;20.70;99.90;;;;;;5091459;28;20479;-74
2022/08/14 06:01:32;;;;;;;8.73;7.70;;;20.80;99.90;;;;;;5091182;28;20040;-75
2022/08/14 06:03:58;;;;;;;12.70;9.52;;;20.90;99.90;;;;;;5091429;28;20051;-76
2022/08/14 06:06:24;;;;;;;16.98;8.70;;;20.90;99.90;;;;;;5090911;28;20048;-74
2022/08/14 06:08:49;;;;;;;13.45;8.48;;;20.90;99.90;;;;;;5091463;28;20074;-75
2022/08/14 06:11:15;;;;;;;10.18;8.45;;;21.00;99.90;;;;;;5090880;28;20434;-75
2022/08/14 06:13:42;;;;;;;12.98;8.57;;;21.00;99.90;;;;;;5090630;28;20044;-74
2022/08/14 06:16:08;;;;;;;9.77;8.23;;;21.10;99.90;;;;;;5091385;28;20040;-75
2022/08/14 06:18:34;;;;;;;15.05;8.40;;;21.20;99.90;;;;;;5091019;28;20387;-76
2022/08/14 06:21:04;;;;;;;13.10;7.80;;;21.30;99.90;;;;;;5091426;28;20094;-76
2022/08/14 06:23:30;;;;;;;15.13;8.30;;;21.30;99.90;;;;;;5090529;28;20040;-76
2022/08/14 06:25:56;;;;;;;11.90;7.68;;;21.50;99.90;;;;;;5091196;28;20107;-75
2022/08/14 06:28:24;;;;;;;15.20;8.30;;;21.50;99.90;;;;;;5090826;28;20127;-76
2022/08/14 06:30:51;;;;;;;12.50;7.95;;;21.50;99.90;;;;;;5072684;28;20040;-77
2022/08/14 06:33:18;;;;;;;10.73;7.57;;;21.50;99.90;;;;;;5090788;28;20082;-73
2022/08/14 06:35:45;;;;;;;9.45;7.53;;;21.60;99.90;;;;;;5088045;28;20059;-75
2022/08/14 06:38:15;;;;;;;12.88;8.25;;;21.70;99.90;;;;;;5090983;28;20052;-75
2022/08/14 06:40:42;;;;;;;8.25;7.25;;;21.80;99.90;;;;;;5084711;28;20415;-76
2022/08/14 06:43:10;;;;;;;13.50;7.47;;;21.90;99.90;;;;;;5091347;28;20327;-76
2022/08/14 06:45:39;;;;;;;11.68;7.18;;;22.00;99.90;;;;;;5071955;28;20044;-76
2022/08/14 06:48:15;;;;;;;9.90;6.95;;;22.10;99.90;;;;;;5090692;28;20119;-78
2022/08/14 06:50:42;;;;;;;8.95;7.50;;;22.20;99.90;;;;;;5071725;28;20040;-76
2022/08/14 06:53:08;;;;;;;10.10;7.38;;;22.30;99.90;;;;;;5090607;28;20127;-74
2022/08/14 06:55:34;;;;;;;10.60;7.10;;;22.40;99.90;;;;;;5089269;28;20143;-76
2022/08/14 06:58:00;;;;;;;9.23;7.00;;;22.50;99.90;;;;;;5090459;28;20040;-76
2022/08/14 07:00:28;;;;;;;10.55;6.88;;;22.60;99.90;;;;;;5089677;28;20464;-75
2022/08/14 07:05:44;;;;;;;;;;;22.70;99.90;;;;;;5090677;28;20060;-75
2022/08/14 07:08:13;;;;;;;9.63;6.60;;;22.80;99.90;;;;;;5090341;28;19927;-76
2022/08/14 07:10:39;;;;;;;10.63;6.97;;;22.90;99.90;;;;;;5089386;28;20719;-75
2022/08/14 07:13:05;;;;;;;6.97;5.57;;;23.10;99.90;;;;;;5090047;28;20044;-76
2022/08/14 07:15:32;;;;;;;10.50;6.43;;;23.20;99.90;;;;;;5090172;28;20039;-75
2022/08/14 07:17:59;;;;;;;9.30;5.97;;;23.30;99.90;;;;;;5088412;28;20514;-78
2022/08/14 07:20:26;;;;;;;10.70;5.80;;;23.40;99.90;;;;;;5071155;28;20090;-77
2022/08/14 07:22:57;;;;;;;8.57;5.97;;;23.50;99.90;;;;;;5089308;28;20055;-76
2022/08/14 07:25:26;;;;;;;12.48;6.28;;;23.60;99.90;;;;;;5089875;28;20054;-75
2022/08/14 07:27:53;;;;;;;12.27;5.82;;;23.70;99.90;;;;;;5089575;28;20048;-78
2022/08/14 07:30:19;;;;;;;8.50;5.88;;;23.80;99.90;;;;;;5089750;28;20127;-77
2022/08/14 07:32:47;;;;;;;10.38;5.68;;;23.90;99.90;;;;;;5071624;28;20048;-77
2022/08/14 07:35:13;;;;;;;8.82;6.28;;;24.10;99.90;;;;;;5089528;28;20062;-77
2022/08/14 07:37:40;;;;;;;9.23;6.10;;;24.20;99.90;;;;;;5089773;28;20043;-76
2022/08/14 07:40:07;;;;;;;7.10;6.40;;;24.20;99.90;;;;;;5089927;28;20036;-76
2022/08/14 07:42:33;;;;;;;9.45;6.68;;;24.40;99.90;;;;;;5089825;28;20111;-77
2022/08/14 07:44:59;;;;;;;8.68;6.15;;;24.50;99.90;;;;;;5089264;28;20071;-76
2022/08/14 07:47:26;;;;;;;15.25;6.15;;;24.50;99.90;;;;;;5089615;28;20135;-77
2022/08/14 07:50:16;;;;;;;8.60;5.80;;;24.70;99.90;;;;;;5089466;28;20063;-77
2022/08/14 07:52:43;;;;;;;9.32;6.13;;;24.90;99.90;;;;;;4987123;28;20055;-77
2022/08/14 07:55:11;;;;;;;9.60;5.55;;;25.00;99.90;;;;;;4987050;28;20070;-76
2022/08/14 07:57:42;;;;;;;10.80;5.93;;;25.20;99.90;;;;;;4987254;28;20060;-77
2022/08/14 08:00:11;;;;;;;7.07;5.68;;;25.40;99.90;;;;;;4987001;28;20081;-76
2022/08/14 08:02:43;;;;;;;9.00;5.85;;;25.50;99.90;;;;;;4987428;28;20043;-76
2022/08/14 08:05:10;;;;;;;8.32;5.65;;;25.70;99.90;;;;;;4969977;28;20058;-76
2022/08/14 08:07:37;;;;;;;11.43;5.45;;;26.00;99.90;;;;;;4986949;28;20197;-76
2022/08/14 08:12:58;;;;;;;9.63;5.50;;;26.40;99.90;;;;;;4968828;28;20042;-73
2022/08/14 08:15:25;;;;;;;9.85;4.88;;;26.60;99.90;;;;;;4982398;28;20047;-74
2022/08/14 08:17:52;;;;;;;7.20;4.65;;;26.90;99.90;;;;;;4977106;28;20058;-75
2022/08/14 08:20:20;;;;;;;5.80;4.90;;;27.10;99.80;;;;;;4987208;28;20600;-76
2022/08/14 08:22:49;;;;;;;8.77;4.85;;;27.30;99.40;;;;;;4986230;28;20458;-76
2022/08/14 08:25:17;;;;;;;8.23;5.30;;;27.50;98.80;;;;;;4986923;28;20545;-73
2022/08/14 08:27:56;;;;;;;12.38;6.05;;;27.70;98.60;;;;;;4986908;28;20043;-73
2022/08/14 08:30:22;;;;;;;8.00;5.15;;;27.90;97.90;;;;;;5068157;28;20047;-74
2022/08/14 08:32:51;;;;;;;6.45;4.72;;;28.10;97.60;;;;;;5074593;28;20036;-74
2022/08/14 08:35:22;;;;;;;12.05;4.78;;;28.20;97.60;;;;;;5093183;28;20082;-73
2022/08/14 08:37:49;;;;;;;7.75;4.10;;;28.30;97.40;;;;;;5092066;28;20044;-74
2022/08/14 08:40:28;;;;;;;5.90;4.43;;;28.40;96.90;;;;;;5084423;28;20044;-74
2022/08/14 08:42:54;;;;;;;6.88;4.03;;;28.70;96.90;;;;;;5092362;28;20561;-75
2022/08/14 08:45:21;;;;;;;7.03;4.47;;;28.80;96.70;;;;;;5092472;28;20079;-74
2022/08/14 08:47:47;;;;;;;6.68;4.75;;;28.90;96.10;;;;;;5092758;28;20047;-73
2022/08/14 08:50:24;;;;;;;9.07;4.75;;;29.00;96.10;;;;;;5084535;28;20035;-74
2022/08/14 08:52:52;;;;;;;9.90;4.30;;;29.00;95.70;;;;;;5084806;28;20039;-74
2022/08/14 08:55:44;;;;;;;7.45;4.43;;;29.30;95.80;;;;;;5077177;28;20047;-75
2022/08/14 08:58:13;;;;;;;5.38;4.15;;;29.40;95.20;;;;;;4989924;28;20832;-74
2022/08/14 09:00:40;;;;;;;9.73;4.05;;;29.50;95.10;;;;;;4990655;28;20120;-75
2022/08/14 09:03:14;;;;;;;6.28;3.85;;;29.50;94.90;;;;;;4990332;28;20573;-73
2022/08/14 09:06:04;;;;;;;6.47;4.25;;;29.80;94.50;;;;;;4990296;28;20049;-73
2022/08/14 09:08:33;;;;;;;5.00;3.55;;;29.90;94.20;;;;;;4990140;28;20062;-74
2022/08/14 09:11:01;;;;;;;6.03;4.20;;;29.90;94.30;;;;;;4992429;28;20124;-76
2022/08/14 09:13:27;;;;;;;6.13;4.30;;;29.90;94.00;;;;;;5003642;28;20161;-77
2022/08/14 09:15:55;;;;;;;7.57;4.30;;;30.20;94.00;;;;;;5002673;28;20782;-76
2022/08/14 09:18:22;;;;;;;5.22;4.00;;;30.10;93.70;;;;;;5005361;28;20061;-75
2022/08/14 09:20:51;;;;;;;5.47;3.80;;;30.30;93.20;;;;;;5005946;28;20573;-76
2022/08/14 09:23:18;;;;;;;6.07;3.92;;;30.30;93.00;;;;;;5002418;28;20460;-74
2022/08/14 09:25:47;;;;;;;4.53;3.53;;;30.40;93.00;;;;;;5002394;28;20136;-75
2022/08/14 09:28:15;;;;;;;6.70;3.50;;;30.40;92.20;;;;;;5009298;28;20050;-76
2022/08/14 09:30:46;;;;;;;8.25;4.40;;;30.50;92.50;;;;;;5002715;28;20057;-72
2022/08/14 09:33:21;;;;;;;8.40;3.70;;;30.50;92.00;;;;;;5002037;28;20132;-74
2022/08/14 09:36:21;;;;;;;6.82;3.75;;;30.60;91.90;;;;;;5037851;28;20782;-75
2022/08/14 09:39:10;;;;;;;9.32;3.88;;;30.60;91.10;;;;;;5065808;28;20087;-75
2022/08/14 09:42:08;;;;;;;9.98;3.40;;;30.80;92.00;;;;;;5056742;28;20047;-74
2022/08/14 09:44:49;;;;;;;4.85;3.88;;;30.90;91.60;;;;;;5064306;28;20041;-76
2022/08/14 09:47:16;;;;;;;6.60;3.80;;;31.10;91.20;;;;;;5071213;28;20040;-74
2022/08/14 09:49:42;;;;;;;7.68;3.97;;;31.00;91.30;;;;;;5070271;28;20087;-75
2022/08/14 09:52:15;;;;;;;5.38;3.65;;;31.10;91.20;;;;;;5071369;28;20483;-76
2022/08/14 09:54:44;;;;;;;5.82;4.10;;;31.10;90.90;;;;;;5070921;28;20056;-75
2022/08/14 09:57:24;;;;;;;4.90;4.00;;;31.20;90.80;;;;;;5070656;28;20483;-75
2022/08/14 09:59:51;;;;;;;8.23;3.95;;;31.10;90.70;;;;;;5063735;28;20048;-74
2022/08/14 10:02:31;;;;;;;5.97;3.70;;;31.10;90.90;;;;;;5053234;28;20055;-74
2022/08/14 10:05:09;;;;;;;8.60;3.90;;;31.40;90.50;;;;;;5064064;28;20048;-76
2022/08/14 10:07:51;;;;;;;7.38;4.05;;;31.40;90.80;;;;;;5071023;28;20048;-76
2022/08/14 10:10:33;;;;;;;13.52;3.88;;;31.30;90.00;;;;;;5070266;28;20132;-77
2022/08/14 10:13:01;;;;;;;4.40;3.38;;;31.50;90.50;;;;;;5083663;28;20040;-76
2022/08/14 10:15:29;;;;;;;5.50;3.53;;;31.70;90.40;;;;;;5091392;28;20154;-76
2022/08/14 10:18:06;;;;;;;5.63;3.85;;;31.60;89.80;;;;;;5083979;28;20048;-86
2022/08/14 10:20:41;;;;;;;4.40;3.80;;;31.60;89.10;;;;;;5091108;28;20047;-81
2022/08/14 10:23:18;;;;;;;16.80;3.90;;;31.70;90.20;;;;;;5082511;28;20487;-78
2022/08/14 10:25:50;;;;;;;5.10;3.22;;;31.80;89.10;;;;;;5090927;28;20556;-78
2022/08/14 10:28:21;;;;;;;4.47;3.53;;;32.00;90.00;;;;;;5083640;28;20046;-75
2022/08/14 10:30:52;;;;;;;5.63;3.53;;;32.10;88.90;;;;;;5090975;28;20048;-81
2022/08/14 10:33:28;;;;;;;3.97;3.22;;;32.10;89.10;;;;;;5090716;28;20059;-80
2022/08/14 10:35:55;;;;;;;5.55;3.33;;;32.10;87.60;;;;;;5090861;28;20858;-81
2022/08/14 10:38:31;;;;;;;4.90;3.28;;;32.10;88.00;;;;;;5090715;28;20076;-84
2022/08/14 10:41:12;;;;;;;6.30;3.72;;;32.20;87.20;;;;;;5091273;28;20507;-89
2022/08/14 10:43:40;;;;;;;6.60;3.45;;;32.30;86.60;;;;;;5091035;28;20044;-82
2022/08/14 10:46:13;;;;;;;4.20;2.85;;;32.20;87.40;;;;;;5091387;28;20032;-77
2022/08/14 10:48:39;;;;;;;5.35;3.28;;;32.20;85.40;;;;;;5090900;28;20048;-81
2022/08/14 10:51:04;;;;;;;3.70;3.30;;;32.30;86.40;;;;;;5090635;28;20066;-83
2022/08/14 10:53:35;;;;;;;3.72;3.15;;;32.40;85.90;;;;;;5091091;28;20406;-82
2022/08/14 10:56:28;;;;;;;4.30;3.45;;;32.30;86.30;;;;;;5097225;22;20166;-81
2022/08/14 10:59:15;;;;;;;6.40;3.35;;;32.40;86.50;;;;;;5090502;28;20052;-83
2022/08/14 11:01:42;;;;;;;4.95;3.40;;;32.30;85.90;;;;;;5090312;28;20052;-82
2022/08/14 11:04:27;;;;;;;6.85;2.97;;;32.30;86.80;;;;;;5090268;28;20059;-83
2022/08/14 11:06:54;;;;;;;5.70;2.97;;;32.50;85.20;;;;;;5089551;28;20040;-84
2022/08/14 11:09:20;;;;;;;6.25;3.40;;;32.60;84.90;;;;;;5089674;28;20072;-80
2022/08/14 11:11:48;;;;;;;4.45;2.80;;;32.60;85.70;;;;;;5091062;28;20571;-83
2022/08/14 11:14:15;;;;;;;3.65;2.60;;;32.70;85.30;;;;;;5071894;28;20060;-77
2022/08/14 11:16:43;;;;;;;6.60;2.63;;;32.80;85.00;;;;;;5090298;28;20430;-77
2022/08/14 11:19:10;;;;;;;6.65;2.83;;;32.90;84.60;;;;;;5090039;28;20044;-78
2022/08/14 11:21:39;;;;;;;3.78;2.55;;;32.90;84.30;;;;;;5089758;28;20040;-81
2022/08/14 11:24:07;;;;;;;5.55;2.85;;;32.90;84.10;;;;;;5090280;28;20427;-81
2022/08/14 11:26:37;;;;;;;6.80;3.00;;;32.80;83.80;;;;;;5071076;28;20490;-80
2022/08/14 11:29:04;;;;;;;4.82;2.97;;;33.00;84.00;;;;;;5071475;28;20110;-78
2022/08/14 11:31:34;;;;;;;5.57;2.78;;;33.00;83.30;;;;;;5075184;28;20048;-79
2022/08/14 11:34:00;;;;;;;5.28;3.00;;;32.90;82.50;;;;;;5071488;28;20068;-82
2022/08/14 11:36:28;;;;;;;3.65;2.65;;;32.90;82.90;;;;;;5071923;28;20464;-80
2022/08/14 11:38:54;;;;;;;4.07;2.60;;;33.00;82.60;;;;;;5089145;28;20041;-86
2022/08/14 11:41:20;;;;;;;4.38;2.88;;;33.00;82.40;;;;;;5092034;28;20044;-80
2022/08/14 11:43:48;;;;;;;4.20;2.90;;;33.00;82.60;;;;;;5090910;28;20722;-80
2022/08/14 11:46:15;;;;;;;4.80;3.05;;;33.00;81.40;;;;;;5089926;28;20427;-78
2022/08/14 11:48:53;;;;;;;6.65;2.95;;;33.10;82.10;;;;;;5089246;28;20501;-79
2022/08/14 11:51:26;;;;;;;4.82;2.92;;;33.10;82.40;;;;;;5082847;28;20048;-78
2022/08/14 11:54:00;;;;;;;3.83;2.97;;;33.20;82.20;;;;;;5054025;28;20044;-81
2022/08/14 11:56:34;;;;;;;5.20;3.10;;;33.20;81.60;;;;;;5082254;28;20085;-79
2022/08/14 11:59:00;;;;;;;5.85;3.00;;;33.20;81.40;;;;;;5060679;28;20048;-78
2022/08/14 12:01:29;;;;;;;4.40;2.70;;;33.20;81.20;;;;;;5089373;28;20042;-80
2022/08/14 12:04:06;;;;;;;6.78;2.97;;;33.40;80.40;;;;;;5087932;28;20036;-82
2022/08/14 12:06:47;;;;;;;6.18;3.20;;;33.40;80.20;;;;;;5071031;28;20048;-84
2022/08/14 12:09:26;;;;;;;5.57;3.28;;;33.50;80.40;;;;;;5081979;28;20047;-82
2022/08/14 12:11:51;;;;;;;6.53;3.33;;;33.50;80.60;;;;;;5070091;28;20487;-83
2022/08/14 12:14:17;;;;;;;7.32;3.78;;;33.50;80.70;;;;;;5089929;28;20090;-86
2022/08/14 12:16:44;;;;;;;4.30;3.58;;;33.50;80.70;;;;;;5089478;28;20071;-81
2022/08/14 12:19:09;;;;;;;4.88;3.33;;;33.50;80.80;;;;;;5089631;28;20079;-79
2022/08/14 12:21:35;;;;;;;4.07;3.28;;;33.20;80.10;;;;;;5089998;28;20469;-81
2022/08/14 12:24:08;;;;;;;7.10;3.67;;;33.00;79.80;;;;;;5071642;28;20453;-78
2022/08/14 12:26:36;;;;;;;7.43;3.30;;;33.20;79.90;;;;;;5071740;28;20105;-81
2022/08/14 12:29:15;;;;;;;6.32;3.53;;;33.50;80.80;;;;;;5090138;28;20093;-79
2022/08/14 12:31:43;;;;;;;8.45;3.58;;;33.50;79.80;;;;;;5089771;28;20044;-81
2022/08/14 12:34:11;;;;;;;5.53;3.75;;;33.40;80.20;;;;;;5071854;28;20602;-82
2022/08/14 12:36:37;;;;;;;4.82;3.50;;;33.40;80.10;;;;;;5071616;28;20044;-77
2022/08/14 12:39:18;;;;;;;5.50;3.58;;;33.60;80.30;;;;;;5071941;28;20098;-79
2022/08/14 12:42:03;;;;;;;4.03;3.05;;;33.80;80.00;;;;;;5071885;28;20151;-78
2022/08/14 12:44:31;;;;;;;4.70;3.55;;;33.70;78.60;;;;;;5089637;28;20040;-75
2022/08/14 12:47:11;;;;;;;7.15;3.83;;;33.80;79.60;;;;;;5089527;28;20070;-77
2022/08/14 12:49:37;;;;;;;8.30;3.55;;;34.00;79.20;;;;;;5089739;28;20111;-79
2022/08/14 12:52:05;;;;;;;4.97;3.75;;;34.10;78.80;;;;;;5089600;28;20054;-80
2022/08/14 12:54:31;;;;;;;4.55;3.10;;;33.90;78.00;;;;;;5089429;28;20398;-78
2022/08/14 12:57:10;;;;;;;6.53;3.72;;;34.00;79.00;;;;;;5089335;28;20056;-78
2022/08/14 12:59:42;;;;;;;6.35;4.00;;;33.90;78.30;;;;;;5071610;28;20044;-79
2022/08/14 13:02:24;;;;;;;5.45;3.30;;;33.70;78.30;;;;;;5088993;28;20089;-78
2022/08/14 13:04:52;;;;;;;5.88;3.42;;;33.40;77.60;;;;;;5089239;28;20047;-79
2022/08/14 13:07:17;;;;;;;3.72;3.17;;;33.40;78.40;;;;;;5089438;28;20375;-81
2022/08/14 13:09:43;;;;;;;4.65;3.55;;;33.50;78.40;;;;;;5089039;28;20044;-81
2022/08/14 13:12:11;;;;;;;4.90;3.40;;;33.60;77.70;;;;;;5089341;28;20084;-81